createdAt,value
2018-04-13T00:02:08.616Z,73.53
2018-04-13T00:04:38.675Z,76.20
2018-04-13T00:07:06.878Z,77.00
2018-04-13T00:09:35.009Z,71.93
2018-04-13T00:12:03.143Z,64.60
2018-04-13T00:14:31.300Z,73.07
2018-04-13T00:16:59.490Z,67.87
2018-04-13T00:19:27.639Z,68.87
2018-04-13T00:21:55.851Z,75.70
2018-04-13T00:24:24.192Z,78.27
2018-04-13T00:26:52.411Z,73.83
2018-04-13T00:29:20.550Z,71.53
2018-04-13T00:31:48.674Z,68.53
2018-04-13T00:34:18.295Z,66.17
2018-04-13T00:36:47.769Z,68.97
2018-04-13T00:39:16.691Z,66.53
2018-04-13T00:41:45.694Z,66.33
2018-04-13T00:44:14.596Z,66.57
2018-04-13T00:46:42.721Z,68.40
2018-04-13T00:49:10.846Z,70.57
2018-04-13T00:51:38.983Z,70.60
2018-04-13T00:54:07.104Z,64.67
2018-04-13T00:56:35.278Z,67.17
2018-04-13T00:59:03.590Z,64.27
2018-04-13T01:01:32.041Z,61.27
2018-04-13T01:04:00.159Z,62.03
2018-04-13T01:06:28.315Z,60.80
2018-04-13T01:08:56.621Z,60.67
2018-04-13T01:11:24.990Z,61.90
2018-04-13T01:13:53.919Z,67.53
2018-04-13T01:16:22.052Z,64.33
2018-04-13T01:18:50.941Z,60.57
2018-04-13T01:21:19.970Z,64.43
2018-04-13T01:23:48.211Z,64.97
2018-04-13T01:26:17.228Z,65.30
2018-04-13T01:28:46.198Z,70.20
2018-04-13T01:31:15.104Z,60.93
2018-04-13T01:33:43.987Z,64.47
2018-04-13T01:36:12.929Z,61.47
2018-04-13T01:38:41.061Z,63.53
2018-04-13T01:41:09.942Z,60.20
2018-04-13T01:43:38.887Z,60.60
2018-04-13T01:46:07.177Z,67.07
2018-04-13T01:48:35.301Z,67.90
2018-04-13T01:51:04.460Z,64.20
2018-04-13T01:53:32.615Z,59.13
2018-04-13T01:56:00.749Z,59.77
2018-04-13T01:58:28.886Z,60.10
2018-04-13T02:00:57.066Z,57.90
2018-04-13T02:03:26.092Z,60.60
2018-04-13T02:05:54.337Z,55.37
2018-04-13T02:08:23.223Z,57.30
2018-04-13T02:10:51.528Z,62.80
2018-04-13T02:13:19.810Z,65.87
2018-04-13T02:15:47.937Z,66.77
2018-04-13T02:18:16.931Z,67.10
2018-04-13T02:20:45.212Z,65.70
2018-04-13T02:23:13.360Z,67.50
2018-04-13T02:25:41.476Z,69.23
2018-04-13T02:28:09.613Z,69.33
2018-04-13T02:30:37.737Z,68.77
2018-04-13T02:33:07.397Z,60.00
2018-04-13T02:35:35.608Z,58.93
2018-04-13T02:38:04.510Z,60.07
2018-04-13T02:40:33.439Z,58.63
2018-04-13T02:43:01.675Z,65.60
2018-04-13T02:45:30.558Z,65.77
2018-04-13T02:47:59.556Z,65.63
2018-04-13T02:50:28.458Z,61.97
2018-04-13T02:52:56.582Z,60.67
2018-04-13T02:55:24.762Z,57.83
2018-04-13T02:57:52.910Z,66.10
2018-04-13T03:00:21.067Z,61.63
2018-04-13T03:02:49.208Z,68.63
2018-04-13T03:05:20.544Z,61.90
2018-04-13T03:07:48.859Z,59.63
2018-04-13T03:10:16.984Z,55.73
2018-04-13T03:12:45.159Z,55.60
2018-04-13T03:15:13.284Z,58.00
2018-04-13T03:17:41.391Z,64.00
2018-04-13T03:20:10.402Z,68.67
2018-04-13T03:22:38.562Z,61.70
2018-04-13T03:25:06.735Z,58.70
2018-04-13T03:27:35.081Z,59.63
2018-04-13T03:30:03.246Z,58.97
2018-04-13T03:32:31.505Z,57.47
2018-04-13T03:34:59.745Z,66.23
2018-04-13T03:37:27.869Z,67.07
2018-04-13T03:39:55.984Z,58.33
2018-04-13T03:42:24.157Z,54.63
2018-04-13T03:44:52.267Z,52.77
2018-04-13T03:47:21.151Z,54.20
2018-04-13T03:49:50.366Z,52.13
2018-04-13T03:52:19.240Z,53.03
2018-04-13T03:54:48.137Z,56.87
2018-04-13T03:57:17.050Z,53.53
2018-04-13T03:59:45.153Z,52.17
2018-04-13T04:02:13.463Z,50.83
2018-04-13T04:04:41.646Z,48.97
2018-04-13T04:07:10.530Z,49.97
2018-04-13T04:09:39.413Z,57.00
2018-04-13T04:12:07.565Z,54.50
2018-04-13T04:14:35.753Z,51.17
2018-04-13T04:17:03.982Z,52.90
2018-04-13T04:19:44.088Z,54.60
2018-04-13T04:22:24.802Z,51.67
2018-04-13T04:25:16.119Z,50.70
2018-04-13T04:27:46.322Z,52.63
2018-04-13T04:30:14.466Z,52.10
2018-04-13T04:32:43.354Z,51.20
2018-04-13T04:35:11.463Z,53.33
2018-04-13T04:37:39.624Z,52.83
2018-04-13T04:40:07.900Z,49.50
2018-04-13T04:42:36.139Z,49.17
2018-04-13T04:45:04.392Z,49.17
2018-04-13T04:47:32.991Z,50.87
2018-04-13T04:50:01.106Z,49.60
2018-04-13T04:52:30.761Z,52.10
2018-04-13T04:54:59.068Z,51.17
2018-04-13T04:57:27.180Z,50.80
2018-04-13T04:59:55.294Z,48.97
2018-04-13T05:02:23.460Z,56.97
2018-04-13T05:04:51.738Z,55.03
2018-04-13T05:07:19.963Z,53.77
2018-04-13T05:09:48.091Z,71.73
2018-04-13T05:12:16.231Z,66.37
2018-04-13T05:14:44.343Z,66.63
2018-04-13T05:17:12.508Z,69.73
2018-04-13T05:19:40.754Z,66.77
2018-04-13T05:22:09.080Z,60.27
2018-04-13T05:24:37.289Z,52.70
2018-04-13T05:27:07.217Z,52.23
2018-04-13T05:29:35.386Z,48.47
2018-04-13T05:32:04.286Z,46.23
2018-04-13T05:34:32.417Z,44.77
2018-04-13T05:37:00.530Z,44.83
2018-04-13T05:39:28.697Z,42.53
2018-04-13T05:41:56.859Z,43.90
2018-04-13T05:44:25.202Z,41.80
2018-04-13T05:46:53.356Z,44.03
2018-04-13T05:49:22.171Z,42.83
2018-04-13T05:51:50.306Z,41.30
2018-04-13T05:54:18.428Z,39.80
2018-04-13T05:56:46.550Z,38.43
2018-04-13T05:59:14.674Z,38.97
2018-04-13T06:01:43.092Z,37.63
2018-04-13T06:04:11.224Z,36.53
2018-04-13T06:06:40.118Z,36.70
2018-04-13T06:09:09.013Z,34.97
2018-04-13T06:11:37.890Z,35.57
2018-04-13T06:14:06.168Z,35.30
2018-04-13T06:16:35.082Z,34.80
2018-04-13T06:19:03.212Z,34.97
2018-04-13T06:21:31.317Z,34.20
2018-04-13T06:23:59.887Z,34.43
2018-04-13T06:26:28.223Z,32.30
2018-04-13T06:28:56.333Z,32.20
2018-04-13T06:31:24.527Z,33.80
2018-04-13T06:33:53.402Z,32.77
2018-04-13T06:36:21.520Z,32.93
2018-04-13T06:38:50.395Z,30.57
2018-04-13T06:41:18.496Z,34.17
2018-04-13T06:43:46.610Z,33.83
2018-04-13T06:46:14.790Z,34.63
2018-04-13T06:48:43.675Z,34.30
2018-04-13T06:51:11.771Z,33.80
2018-04-13T06:53:39.912Z,31.07
2018-04-13T06:56:08.112Z,29.53
2018-04-13T06:58:36.982Z,28.23
2018-04-13T07:01:05.260Z,29.07
2018-04-13T07:03:33.383Z,25.53
2018-04-13T07:06:01.487Z,25.47
2018-04-13T07:08:29.628Z,25.17
2018-04-13T07:10:57.776Z,24.77
2018-04-13T07:13:25.944Z,23.43
2018-04-13T07:15:54.917Z,22.67
2018-04-13T07:18:23.015Z,20.83
2018-04-13T07:20:51.128Z,21.37
2018-04-13T07:23:19.264Z,20.97
2018-04-13T07:25:47.442Z,18.30
2018-04-13T07:28:15.560Z,18.07
2018-04-13T07:30:44.512Z,17.43
2018-04-13T07:33:13.337Z,17.70
2018-04-13T07:35:40.879Z,17.43
2018-04-13T07:38:09.046Z,17.37
2018-04-13T07:40:38.006Z,17.17
2018-04-13T07:43:06.893Z,16.93
2018-04-13T07:45:35.102Z,17.13
2018-04-13T07:48:03.223Z,17.50
2018-04-13T07:50:31.326Z,15.93
2018-04-13T07:52:59.594Z,16.53
2018-04-13T07:55:28.486Z,17.00
2018-04-13T07:57:57.368Z,17.00
2018-04-13T08:00:26.360Z,16.37
2018-04-13T08:02:55.232Z,16.07
2018-04-13T08:05:23.349Z,16.33
2018-04-13T08:07:51.479Z,16.73
2018-04-13T08:10:19.801Z,16.37
2018-04-13T08:12:48.893Z,17.23
2018-04-13T08:15:17.025Z,17.60
2018-04-13T08:17:45.129Z,17.93
2018-04-13T08:20:14.085Z,18.43
2018-04-13T08:22:42.211Z,18.10
2018-04-13T08:25:10.329Z,17.83
2018-04-13T08:27:38.443Z,18.07
2018-04-13T08:30:06.627Z,18.27
2018-04-13T08:32:34.795Z,18.10
2018-04-13T08:35:02.912Z,18.80
2018-04-13T08:37:32.029Z,18.77
2018-04-13T08:40:00.133Z,18.03
2018-04-13T08:42:28.300Z,17.67
2018-04-13T08:44:56.406Z,18.10
2018-04-13T08:47:24.516Z,18.60
2018-04-13T08:49:52.698Z,18.30
2018-04-13T08:52:21.607Z,18.60
2018-04-13T08:54:50.497Z,20.43
2018-04-13T08:57:19.408Z,18.60
2018-04-13T08:59:47.680Z,19.30
2018-04-13T09:02:15.793Z,21.50
2018-04-13T09:04:44.003Z,21.57
2018-04-13T09:07:12.162Z,22.00
2018-04-13T09:09:40.281Z,21.00
2018-04-13T09:12:08.506Z,21.23
2018-04-13T09:14:39.385Z,21.17
2018-04-13T09:17:07.494Z,21.53
2018-04-13T09:19:35.611Z,22.07
2018-04-13T09:22:04.629Z,21.40
2018-04-13T09:24:32.758Z,21.27
2018-04-13T09:27:00.879Z,20.90
2018-04-13T09:29:32.825Z,21.20
2018-04-13T09:32:01.729Z,22.77
2018-04-13T09:34:29.877Z,21.97
2018-04-13T09:36:58.047Z,22.87
2018-04-13T09:39:27.014Z,22.87
2018-04-13T09:41:55.176Z,24.23
2018-04-13T09:44:23.354Z,24.00
2018-04-13T09:46:51.457Z,23.30
2018-04-13T09:49:19.644Z,23.93
2018-04-13T09:51:47.777Z,24.77
2018-04-13T09:54:15.891Z,26.10
2018-04-13T09:56:44.037Z,25.97
2018-04-13T09:59:12.325Z,26.17
2018-04-13T10:01:41.221Z,26.70
2018-04-13T10:04:13.131Z,29.67
2018-04-13T10:06:41.276Z,29.33
2018-04-13T10:09:09.403Z,29.03
2018-04-13T10:11:37.556Z,30.10
2018-04-13T10:14:05.667Z,28.30
2018-04-13T10:16:33.775Z,29.00
2018-04-13T10:19:01.939Z,29.30
2018-04-13T10:21:30.055Z,29.00
2018-04-13T10:23:58.179Z,28.23
2018-04-13T10:26:26.436Z,26.53
2018-04-13T10:28:55.423Z,27.90
2018-04-13T10:31:23.532Z,27.30
2018-04-13T10:33:51.672Z,28.20
2018-04-13T10:36:19.841Z,26.67
2018-04-13T10:38:48.850Z,25.73
2018-04-13T10:41:17.744Z,26.63
2018-04-13T10:43:45.876Z,26.23
2018-04-13T10:46:13.983Z,26.07
2018-04-13T10:48:42.894Z,26.10
2018-04-13T10:51:11.029Z,25.83
2018-04-13T10:53:39.770Z,25.93
2018-04-13T10:56:07.920Z,26.20
2018-04-13T10:58:36.276Z,25.87
2018-04-13T11:01:04.418Z,26.13
2018-04-13T11:03:32.613Z,26.10
2018-04-13T11:06:00.910Z,24.87
2018-04-13T11:08:29.790Z,25.10
2018-04-13T11:10:58.869Z,27.47
2018-04-13T11:13:27.051Z,27.00
2018-04-13T11:15:55.934Z,26.13
2018-04-13T11:18:24.101Z,27.63
2018-04-13T11:20:52.307Z,26.03
2018-04-13T11:23:21.191Z,25.90
2018-04-13T11:25:50.108Z,25.30
2018-04-13T11:28:21.251Z,26.93
2018-04-13T11:30:49.376Z,27.27
2018-04-13T11:33:17.533Z,27.57
2018-04-13T11:35:45.648Z,26.53
2018-04-13T11:38:14.538Z,27.77
2018-04-13T11:40:42.918Z,26.87
2018-04-13T11:43:11.033Z,26.20
2018-04-13T11:45:39.302Z,26.70
2018-04-13T11:48:08.156Z,26.93
2018-04-13T11:50:37.034Z,25.43
2018-04-13T11:53:05.226Z,26.03
2018-04-13T11:55:34.705Z,26.23
2018-04-13T11:58:03.098Z,25.90
2018-04-13T12:00:31.207Z,23.90
2018-04-13T12:02:59.381Z,25.83
2018-04-13T12:05:27.521Z,25.40
2018-04-13T12:07:56.411Z,25.07
2018-04-13T12:10:25.328Z,23.43
2018-04-13T12:12:53.520Z,22.07
2018-04-13T12:15:21.641Z,24.33
2018-04-13T12:17:49.974Z,23.20
2018-04-13T12:20:18.157Z,23.27
2018-04-13T12:22:46.303Z,22.33
2018-04-13T12:25:14.623Z,21.50
2018-04-13T12:27:43.394Z,21.13
2018-04-13T12:30:38.095Z,21.73
2018-04-13T12:33:06.492Z,20.67
2018-04-13T12:35:34.607Z,22.33
2018-04-13T12:38:02.754Z,21.20
2018-04-13T12:40:31.647Z,21.80
2018-04-13T12:42:59.770Z,20.87
2018-04-13T12:45:27.912Z,19.70
2018-04-13T12:47:56.173Z,20.17
2018-04-13T12:50:25.052Z,19.00
2018-04-13T12:52:53.981Z,19.63
2018-04-13T12:55:22.291Z,20.70
2018-04-13T12:57:50.391Z,20.40
2018-04-13T13:00:18.562Z,19.77
2018-04-13T13:02:46.675Z,18.80
2018-04-13T13:05:14.811Z,18.87
2018-04-13T13:07:43.142Z,19.70
2018-04-13T13:10:11.268Z,19.77
2018-04-13T13:12:39.678Z,19.80
2018-04-13T13:15:08.393Z,20.30
2018-04-13T13:17:36.601Z,20.10
2018-04-13T13:20:04.730Z,20.33
2018-04-13T13:22:32.921Z,21.07
2018-04-13T13:25:01.130Z,20.27
2018-04-13T13:27:29.235Z,19.73
2018-04-13T13:29:57.397Z,19.33
2018-04-13T13:32:25.512Z,20.97
2018-04-13T13:34:53.628Z,19.83
2018-04-13T13:37:22.542Z,20.27
2018-04-13T13:39:50.714Z,18.93
2018-04-13T13:42:19.011Z,20.13
2018-04-13T13:44:47.159Z,19.40
2018-04-13T13:47:15.276Z,19.60
2018-04-13T13:49:43.407Z,20.00
2018-04-13T13:52:11.576Z,18.83
2018-04-13T13:54:39.815Z,18.80
2018-04-13T13:57:07.986Z,19.37
2018-04-13T13:59:36.136Z,19.50
2018-04-13T14:02:04.253Z,17.60
2018-04-13T14:04:33.295Z,18.97
2018-04-13T14:07:01.450Z,18.53
2018-04-13T14:09:29.705Z,18.50
2018-04-13T14:11:58.589Z,17.13
2018-04-13T14:14:27.750Z,17.17
2018-04-13T14:16:55.952Z,16.83
2018-04-13T14:19:24.506Z,16.53
2018-04-13T14:21:52.628Z,16.80
2018-04-13T14:24:20.752Z,16.97
2018-04-13T14:26:48.904Z,17.07
2018-04-13T14:29:17.042Z,16.60
2018-04-13T14:31:45.175Z,15.27
2018-04-13T14:34:13.417Z,15.77
2018-04-13T14:36:41.557Z,16.53
2018-04-13T14:39:10.456Z,17.17
2018-04-13T14:41:39.339Z,15.60
2018-04-13T14:44:08.372Z,15.70
2018-04-13T14:46:36.518Z,15.00
2018-04-13T14:49:05.413Z,14.80
2018-04-13T14:51:33.564Z,16.27
2018-04-13T14:54:02.708Z,15.83
2018-04-13T14:56:30.949Z,16.53
2018-04-13T14:58:59.857Z,15.57
2018-04-13T15:01:27.965Z,14.93
2018-04-13T15:03:56.107Z,15.57
2018-04-13T15:06:24.395Z,15.80
2018-04-13T15:08:52.487Z,16.67
2018-04-13T15:11:20.599Z,16.20
2018-04-13T15:13:49.580Z,16.67
2018-04-13T15:16:17.807Z,16.03
2018-04-13T15:18:46.032Z,14.97
2018-04-13T15:21:14.438Z,16.77
2018-04-13T15:23:43.343Z,16.60
2018-04-13T15:26:11.459Z,15.87
2018-04-13T15:28:40.161Z,16.63
2018-04-13T15:31:08.293Z,15.80
2018-04-13T15:33:36.645Z,16.33
2018-04-13T15:36:04.938Z,15.80
2018-04-13T15:38:33.042Z,15.63
2018-04-13T15:41:02.612Z,14.53
2018-04-13T15:43:31.024Z,14.77
2018-04-13T15:45:59.264Z,14.73
2018-04-13T15:48:27.385Z,14.43
2018-04-13T15:50:56.426Z,16.20
2018-04-13T15:53:24.548Z,16.30
2018-04-13T15:55:52.687Z,15.87
2018-04-13T15:58:20.878Z,17.03
2018-04-13T16:00:49.812Z,16.13
2018-04-13T16:03:18.701Z,17.60
2018-04-13T16:05:47.646Z,17.57
2018-04-13T16:08:17.104Z,16.80
2018-04-13T16:10:45.236Z,16.50
2018-04-13T16:13:13.616Z,17.53
2018-04-13T16:15:41.750Z,16.07
2018-04-13T16:18:09.861Z,16.80
2018-04-13T16:20:38.092Z,17.53
2018-04-13T16:23:06.246Z,17.47
2018-04-13T16:25:35.154Z,17.10
2018-04-13T16:28:03.293Z,18.10
2018-04-13T16:30:32.939Z,17.90
2018-04-13T16:33:01.080Z,18.13
2018-04-13T16:35:30.741Z,17.97
2018-04-13T16:37:58.878Z,18.00
2018-04-13T16:40:28.608Z,17.97
2018-04-13T16:42:56.765Z,17.97
2018-04-13T16:45:24.888Z,16.90
2018-04-13T16:47:53.006Z,17.47
2018-04-13T16:50:21.969Z,17.93
2018-04-13T16:52:50.177Z,17.70
2018-04-13T16:55:18.479Z,18.73
2018-04-13T16:57:46.661Z,18.93
2018-04-13T17:00:14.900Z,19.23
2018-04-13T17:02:43.821Z,18.47
2018-04-13T17:05:12.461Z,18.13
2018-04-13T17:07:40.778Z,18.70
2018-04-13T17:10:08.915Z,18.87
2018-04-13T17:12:37.158Z,19.17
2018-04-13T17:15:05.501Z,19.17
2018-04-13T17:17:33.619Z,18.67
2018-04-13T17:20:03.307Z,19.07
2018-04-13T17:22:31.413Z,19.77
2018-04-13T17:24:59.544Z,19.73
2018-04-13T17:27:27.704Z,18.63
2018-04-13T17:29:55.885Z,18.70
2018-04-13T17:32:24.024Z,18.90
2018-04-13T17:34:52.951Z,18.90
2018-04-13T17:37:21.091Z,18.97
2018-04-13T17:39:49.979Z,18.93
2018-04-13T17:42:18.918Z,18.40
2018-04-13T17:44:47.050Z,19.33
2018-04-13T17:47:15.951Z,19.90
2018-04-13T17:49:44.118Z,18.00
2018-04-13T17:52:13.005Z,18.60
2018-04-13T17:54:41.255Z,19.93
2018-04-13T17:57:10.173Z,18.93
2018-04-13T17:59:38.307Z,19.47
2018-04-13T18:02:07.233Z,19.70
2018-04-13T18:04:36.158Z,18.77
2018-04-13T18:07:04.404Z,19.37
2018-04-13T18:09:33.416Z,18.63
2018-04-13T18:12:02.354Z,19.60
2018-04-13T18:14:30.671Z,19.77
2018-04-13T18:16:59.787Z,19.27
2018-04-13T18:19:28.105Z,18.77
2018-04-13T18:21:56.220Z,19.90
2018-04-13T18:24:25.262Z,19.97
2018-04-13T18:26:53.428Z,20.27
2018-04-13T18:29:21.590Z,20.27
2018-04-13T18:31:50.030Z,19.90
2018-04-13T18:34:19.111Z,19.50
2018-04-13T18:36:48.050Z,20.70
2018-04-13T18:39:16.166Z,20.83
2018-04-13T18:41:45.079Z,19.40
2018-04-13T18:44:14.067Z,20.73
2018-04-13T18:46:42.971Z,21.43
2018-04-13T18:49:11.899Z,23.77
2018-04-13T18:51:40.041Z,22.07
2018-04-13T18:54:08.935Z,21.27
2018-04-13T18:56:37.299Z,22.03
2018-04-13T18:59:06.184Z,21.77
2018-04-13T19:01:35.066Z,24.17
2018-04-13T19:04:03.254Z,23.47
2018-04-13T19:06:32.266Z,24.07
2018-04-13T19:09:00.412Z,25.90
2018-04-13T19:11:29.347Z,26.50
2018-04-13T19:13:57.489Z,25.23
2018-04-13T19:16:26.380Z,25.73
2018-04-13T19:18:55.684Z,27.83
2018-04-13T19:21:24.610Z,27.77
2018-04-13T19:23:52.831Z,27.13
2018-04-13T19:26:21.161Z,27.50
2018-04-13T19:28:49.323Z,27.57
2018-04-13T19:31:17.783Z,26.30
2018-04-13T19:33:46.683Z,25.63
2018-04-13T19:36:14.805Z,27.37
2018-04-13T19:38:43.703Z,26.60
2018-04-13T19:41:11.829Z,27.47
2018-04-13T19:43:39.939Z,26.43
2018-04-13T19:46:08.059Z,26.07
2018-04-13T19:48:36.220Z,27.53
2018-04-13T19:51:05.217Z,26.63
2018-04-13T19:53:34.094Z,26.17
2018-04-13T19:56:03.165Z,27.03
2018-04-13T19:58:31.281Z,27.90
2018-04-13T20:00:59.444Z,28.13
2018-04-13T20:03:27.626Z,27.83
2018-04-13T20:05:55.754Z,26.37
2018-04-13T20:08:23.877Z,27.23
2018-04-13T20:10:52.096Z,28.43
2018-04-13T20:13:20.284Z,27.90
2018-04-13T20:15:48.502Z,28.67
2018-04-13T20:18:18.486Z,32.10
2018-04-13T20:20:46.612Z,30.43
2018-04-13T20:23:14.724Z,29.30
2018-04-13T20:25:42.961Z,29.43
2018-04-13T20:28:11.212Z,33.20
2018-04-13T20:30:39.367Z,35.33
2018-04-13T20:33:08.306Z,31.70
2018-04-13T20:35:36.440Z,31.90
2018-04-13T20:38:05.316Z,33.53
2018-04-13T20:40:33.532Z,33.77
2018-04-13T20:43:01.666Z,35.20
2018-04-13T20:45:29.832Z,37.90
2018-04-13T20:47:58.202Z,35.60
2018-04-13T20:50:26.363Z,35.83
2018-04-13T20:52:54.505Z,34.57
2018-04-13T20:55:22.743Z,35.47
2018-04-13T20:57:54.629Z,35.37
2018-04-13T21:00:22.957Z,33.67
2018-04-13T21:02:51.113Z,35.97
2018-04-13T21:05:19.305Z,34.13
2018-04-13T21:07:47.479Z,37.07
2018-04-13T21:10:15.924Z,38.30
2018-04-13T21:12:44.102Z,39.60
2018-04-13T21:15:12.235Z,39.90
2018-04-13T21:17:41.126Z,38.30
2018-04-13T21:20:10.195Z,37.27
2018-04-13T21:22:38.496Z,37.33
2018-04-13T21:25:07.389Z,37.63
2018-04-13T21:27:36.302Z,37.50
2018-04-13T21:30:04.453Z,40.80
2018-04-13T21:32:33.360Z,38.40
2018-04-13T21:35:02.343Z,38.90
2018-04-13T21:37:31.501Z,40.87
2018-04-13T21:39:59.667Z,39.93
2018-04-13T21:42:27.847Z,39.17
2018-04-13T21:44:55.992Z,39.43
2018-04-13T21:47:24.151Z,39.17
2018-04-13T21:49:52.290Z,37.80
2018-04-13T21:52:20.447Z,44.03
2018-04-13T21:54:49.149Z,42.33
2018-04-13T21:57:17.370Z,41.83
2018-04-13T21:59:45.534Z,40.83
2018-04-13T22:02:13.665Z,41.70
2018-04-13T22:04:41.787Z,41.57
2018-04-13T22:07:10.037Z,46.27
2018-04-13T22:09:39.097Z,43.97
2018-04-13T22:12:28.131Z,47.73
2018-04-13T22:14:56.245Z,41.67
2018-04-13T22:17:24.388Z,44.77
2018-04-13T22:19:52.544Z,42.97
2018-04-13T22:22:20.655Z,44.17
2018-04-13T22:24:48.824Z,44.03
2018-04-13T22:27:18.393Z,46.93
2018-04-13T22:29:46.557Z,44.80
2018-04-13T22:32:15.824Z,47.70
2018-04-13T22:34:44.760Z,49.83
2018-04-13T22:37:13.593Z,47.87
2018-04-13T22:39:42.491Z,49.27
2018-04-13T22:42:11.212Z,45.80
2018-04-13T22:44:39.371Z,47.50
2018-04-13T22:47:07.502Z,45.83
2018-04-13T22:49:35.660Z,45.40
2018-04-13T22:52:03.780Z,46.47
2018-04-13T22:54:32.661Z,48.07
2018-04-13T22:57:02.400Z,44.77
2018-04-13T22:59:30.509Z,45.70
2018-04-13T23:01:59.251Z,45.80
2018-04-13T23:04:27.405Z,43.80
2018-04-13T23:06:56.354Z,44.63
2018-04-13T23:09:24.487Z,44.67
2018-04-13T23:11:53.390Z,44.00
2018-04-13T23:14:21.520Z,47.03
2018-04-13T23:16:49.651Z,46.17
2018-04-13T23:19:17.813Z,45.40
2018-04-13T23:21:46.055Z,45.40
2018-04-13T23:24:14.896Z,45.40
2018-04-13T23:26:43.272Z,47.17
2018-04-13T23:29:11.422Z,45.77
2018-04-13T23:31:40.056Z,46.93
2018-04-13T23:34:08.199Z,47.90
2018-04-13T23:36:36.334Z,49.07
2018-04-13T23:39:05.840Z,47.63
2018-04-13T23:41:33.999Z,44.00
2018-04-13T23:44:02.284Z,46.23
2018-04-13T23:46:30.419Z,45.57
2018-04-13T23:48:58.607Z,46.17
2018-04-13T23:51:26.718Z,47.33
2018-04-13T23:53:54.848Z,54.77
2018-04-13T23:56:23.031Z,52.17
2018-04-13T23:58:51.200Z,53.17
